createdAt,value
2023-03-06T00:01:09.024Z,81.42
2023-03-06T00:03:36.821Z,79.27
2023-03-06T00:06:04.460Z,79.07
2023-03-06T00:08:31.989Z,79.14
2023-03-06T00:11:00.793Z,80.84
2023-03-06T00:13:30.632Z,82.77
2023-03-06T00:16:00.696Z,81.96
2023-03-06T00:18:28.733Z,82.40
2023-03-06T00:20:56.343Z,79.35
2023-03-06T00:23:24.164Z,79.84
2023-03-06T00:25:52.089Z,81.50
2023-03-06T00:28:19.667Z,81.37
2023-03-06T00:30:48.478Z,81.63
2023-03-06T00:33:17.114Z,80.78
2023-03-06T00:35:44.648Z,80.58
2023-03-06T00:38:12.782Z,80.01
2023-03-06T00:40:40.627Z,79.24
2023-03-06T00:43:08.146Z,78.74
2023-03-06T00:45:36.408Z,78.67
2023-03-06T00:48:04.595Z,78.16
2023-03-06T00:50:32.152Z,78.13
2023-03-06T00:53:00.466Z,77.99
2023-03-06T00:55:29.560Z,78.29
2023-03-06T00:57:57.107Z,78.07
2023-03-06T01:00:25.102Z,78.95
2023-03-06T01:02:53.757Z,78.42
2023-03-06T01:05:21.854Z,79.13
2023-03-06T01:07:49.959Z,79.20
2023-03-06T01:10:17.830Z,79.03
2023-03-06T01:12:45.954Z,79.04
2023-03-06T01:15:14.052Z,80.17
2023-03-06T01:17:42.019Z,80.95
2023-03-06T01:20:13.935Z,80.44
2023-03-06T01:22:42.987Z,79.63
2023-03-06T01:25:11.124Z,79.61
2023-03-06T01:27:38.571Z,80.07
2023-03-06T01:30:07.099Z,80.58
2023-03-06T01:32:34.634Z,81.19
2023-03-06T01:35:03.861Z,80.13
2023-03-06T01:37:31.875Z,80.33
2023-03-06T01:39:59.439Z,79.58
2023-03-06T01:42:26.931Z,79.95
2023-03-06T01:45:03.694Z,79.70
2023-03-06T01:47:31.323Z,79.87
2023-03-06T01:50:01.343Z,78.47
2023-03-06T01:52:33.168Z,78.84
2023-03-06T01:55:15.953Z,78.63
2023-03-06T01:57:57.698Z,78.51
2023-03-06T02:00:28.420Z,78.98
2023-03-06T02:03:10.521Z,78.95
2023-03-06T02:05:40.636Z,78.12
2023-03-06T02:08:12.190Z,80.29
2023-03-06T02:11:09.266Z,81.05
2023-03-06T02:13:38.384Z,80.26
2023-03-06T02:16:08.797Z,78.79
2023-03-06T02:18:37.995Z,78.83
2023-03-06T02:21:12.723Z,79.10
2023-03-06T02:24:03.242Z,79.08
2023-03-06T02:26:33.127Z,79.26
2023-03-06T02:29:00.670Z,79.01
2023-03-06T02:31:31.326Z,79.38
2023-03-06T02:34:14.547Z,78.80
2023-03-06T02:36:47.613Z,78.92
2023-03-06T02:39:16.686Z,83.14
2023-03-06T02:41:44.299Z,80.77
2023-03-06T02:44:12.960Z,80.64
2023-03-06T02:46:41.010Z,82.15
2023-03-06T02:49:08.573Z,79.48
2023-03-06T02:51:36.247Z,78.72
2023-03-06T02:54:04.196Z,81.55
2023-03-06T02:56:32.017Z,82.88
2023-03-06T02:58:59.512Z,80.31
2023-03-06T03:01:28.728Z,81.21
2023-03-06T03:03:56.266Z,81.58
2023-03-06T03:06:23.830Z,81.11
2023-03-06T03:08:51.826Z,81.12
2023-03-06T03:11:20.090Z,79.82
2023-03-06T03:13:47.669Z,80.18
2023-03-06T03:16:16.183Z,80.28
2023-03-06T03:18:44.644Z,80.67
2023-03-06T03:21:14.300Z,79.51
2023-03-06T03:23:42.197Z,79.48
2023-03-06T03:26:18.708Z,80.37
2023-03-06T03:28:47.520Z,82.18
2023-03-06T03:31:16.605Z,81.11
2023-03-06T03:33:44.728Z,81.35
2023-03-06T03:36:12.767Z,82.49
2023-03-06T03:38:41.029Z,80.86
2023-03-06T03:41:09.121Z,80.46
2023-03-06T03:43:37.072Z,80.33
2023-03-06T03:46:04.755Z,80.38
2023-03-06T03:48:32.962Z,80.62
2023-03-06T03:51:13.124Z,80.27
2023-03-06T03:53:40.928Z,79.36
2023-03-06T03:56:10.504Z,80.24
2023-03-06T03:58:40.882Z,81.07
2023-03-06T04:01:08.577Z,79.55
2023-03-06T04:03:37.081Z,79.43
2023-03-06T04:06:05.028Z,79.71
2023-03-06T04:08:32.564Z,80.81
2023-03-06T04:11:01.070Z,80.62
2023-03-06T04:13:29.913Z,82.16
2023-03-06T04:15:59.727Z,82.12
2023-03-06T04:18:28.542Z,83.53
2023-03-06T04:20:57.879Z,84.34
2023-03-06T04:23:26.395Z,84.27
2023-03-06T04:25:54.700Z,83.25
2023-03-06T04:28:22.729Z,83.32
2023-03-06T04:30:51.122Z,83.09
2023-03-06T04:33:19.267Z,82.77
2023-03-06T04:35:46.907Z,82.95
2023-03-06T04:38:14.970Z,82.50
2023-03-06T04:40:44.824Z,82.60
2023-03-06T04:43:12.924Z,82.24
2023-03-06T04:45:41.326Z,82.61
2023-03-06T04:48:12.719Z,83.05
2023-03-06T04:50:40.530Z,82.94
2023-03-06T04:53:08.755Z,83.30
2023-03-06T04:55:37.383Z,83.55
2023-03-06T04:58:04.958Z,84.07
2023-03-06T05:00:32.585Z,83.75
2023-03-06T05:03:01.558Z,83.74
2023-03-06T05:05:29.513Z,84.02
2023-03-06T05:07:57.540Z,84.16
2023-03-06T05:10:25.317Z,85.14
2023-03-06T05:12:52.924Z,84.36
2023-03-06T05:15:20.858Z,84.87
2023-03-06T05:17:48.798Z,84.86
2023-03-06T05:20:17.239Z,84.63
2023-03-06T05:22:44.991Z,85.06
2023-03-06T05:25:13.035Z,84.78
2023-03-06T05:27:41.038Z,84.55
2023-03-06T05:30:11.723Z,84.75
2023-03-06T05:32:39.635Z,84.15
2023-03-06T05:35:07.514Z,84.33
2023-03-06T05:37:35.149Z,84.09
2023-03-06T05:40:06.277Z,85.69
2023-03-06T05:42:33.735Z,84.58
2023-03-06T05:45:02.751Z,85.27
2023-03-06T05:47:31.668Z,84.49
2023-03-06T05:49:59.415Z,84.95
2023-03-06T05:52:27.011Z,85.03
2023-03-06T05:54:55.105Z,85.72
2023-03-06T05:57:23.788Z,87.17
2023-03-06T05:59:51.399Z,86.59
2023-03-06T06:02:19.510Z,84.61
2023-03-06T06:04:47.467Z,84.92
2023-03-06T06:07:16.168Z,83.91
2023-03-06T06:09:45.627Z,82.82
2023-03-06T06:12:14.472Z,82.81
2023-03-06T06:14:41.899Z,82.06
2023-03-06T06:17:09.545Z,81.55
2023-03-06T06:19:38.839Z,80.95
2023-03-06T06:22:06.387Z,80.13
2023-03-06T06:24:33.927Z,79.82
2023-03-06T06:27:03.831Z,79.80
2023-03-06T06:29:31.972Z,79.11
2023-03-06T06:32:00.267Z,78.84
2023-03-06T06:34:28.639Z,78.57
2023-03-06T06:36:56.391Z,78.43
2023-03-06T06:39:25.144Z,77.82
2023-03-06T06:42:14.644Z,77.44
2023-03-06T06:44:40.757Z,76.76
2023-03-06T06:47:22.284Z,76.25
2023-03-06T06:49:56.116Z,74.96
2023-03-06T06:52:24.744Z,74.33
2023-03-06T06:54:52.843Z,73.77
2023-03-06T06:57:20.365Z,73.22
2023-03-06T06:59:50.725Z,72.89
2023-03-06T07:02:20.420Z,72.36
2023-03-06T07:05:02.594Z,72.27
2023-03-06T07:07:34.445Z,72.48
2023-03-06T07:10:06.455Z,71.70
2023-03-06T07:12:35.194Z,71.05
2023-03-06T07:15:05.007Z,70.47
2023-03-06T07:17:32.685Z,70.10
2023-03-06T07:20:02.718Z,69.95
2023-03-06T07:22:38.601Z,68.56
2023-03-06T07:25:09.804Z,68.39
2023-03-06T07:27:37.657Z,66.57
2023-03-06T07:30:05.997Z,66.22
2023-03-06T07:32:33.642Z,65.81
2023-03-06T07:35:19.113Z,65.14
2023-03-06T07:37:47.702Z,65.64
2023-03-06T07:40:15.599Z,65.28
2023-03-06T07:42:43.351Z,64.88
2023-03-06T07:45:12.788Z,64.08
2023-03-06T07:47:41.038Z,63.62
2023-03-06T07:50:09.064Z,63.29
2023-03-06T07:52:36.571Z,63.59
2023-03-06T07:55:05.499Z,63.02
2023-03-06T07:57:33.272Z,62.75
2023-03-06T08:00:00.861Z,62.46
2023-03-06T08:02:28.753Z,62.24
2023-03-06T08:05:08.875Z,62.67
2023-03-06T08:07:37.978Z,62.17
2023-03-06T08:10:06.356Z,62.59
2023-03-06T08:12:33.893Z,62.47
2023-03-06T08:15:01.729Z,62.38
2023-03-06T08:17:29.491Z,62.59
2023-03-06T08:19:57.351Z,62.30
2023-03-06T08:22:25.086Z,61.70
2023-03-06T08:24:56.383Z,61.35
2023-03-06T08:27:24.191Z,60.99
2023-03-06T08:29:51.768Z,61.54
2023-03-06T08:32:19.644Z,60.52
2023-03-06T08:34:47.165Z,59.92
2023-03-06T08:37:14.630Z,59.02
2023-03-06T08:39:42.492Z,59.11
2023-03-06T08:42:10.839Z,59.78
2023-03-06T08:44:38.402Z,59.33
2023-03-06T08:47:06.228Z,59.38
2023-03-06T08:49:33.741Z,58.47
2023-03-06T08:52:01.285Z,57.21
2023-03-06T08:54:29.031Z,57.25
2023-03-06T08:56:56.483Z,56.94
2023-03-06T08:59:25.178Z,56.50
2023-03-06T09:01:53.082Z,55.98
2023-03-06T09:04:20.543Z,54.26
2023-03-06T09:06:48.072Z,53.47
2023-03-06T09:09:15.864Z,51.86
2023-03-06T09:11:43.441Z,52.14
2023-03-06T09:14:11.172Z,52.72
2023-03-06T09:16:39.000Z,52.06
2023-03-06T09:19:06.532Z,52.46
2023-03-06T09:21:34.157Z,53.29
2023-03-06T09:24:02.196Z,52.10
2023-03-06T09:26:43.336Z,51.91
2023-03-06T09:29:12.859Z,51.07
2023-03-06T09:31:41.016Z,51.70
2023-03-06T09:34:08.663Z,52.63
2023-03-06T09:36:49.518Z,53.00
2023-03-06T09:39:21.215Z,53.52
2023-03-06T09:41:50.411Z,53.70
2023-03-06T09:44:23.771Z,54.18
2023-03-06T09:47:21.875Z,54.15
2023-03-06T09:50:09.844Z,53.94
2023-03-06T09:53:03.543Z,53.49
2023-03-06T09:55:39.895Z,52.81
2023-03-06T09:58:20.075Z,53.62
2023-03-06T10:00:53.499Z,54.07
2023-03-06T10:03:46.183Z,53.93
2023-03-06T10:06:20.187Z,53.11
2023-03-06T10:09:03.399Z,52.11
2023-03-06T10:11:43.705Z,52.30
2023-03-06T10:14:18.630Z,51.77
2023-03-06T10:16:47.239Z,52.12
2023-03-06T10:19:19.326Z,51.80
2023-03-06T10:22:18.004Z,51.78
2023-03-06T10:25:12.011Z,51.17
2023-03-06T10:28:09.083Z,51.74
2023-03-06T10:30:55.286Z,50.51
2023-03-06T10:34:03.231Z,51.29
2023-03-06T10:36:31.064Z,51.36
2023-03-06T10:38:59.466Z,51.34
2023-03-06T10:41:30.452Z,51.28
2023-03-06T10:44:01.168Z,51.32
2023-03-06T10:46:38.024Z,51.16
2023-03-06T10:49:21.872Z,51.84
2023-03-06T10:52:15.728Z,53.71
2023-03-06T10:54:44.450Z,53.33
2023-03-06T10:57:25.541Z,52.68
2023-03-06T11:00:04.610Z,52.58
2023-03-06T11:02:38.585Z,53.33
2023-03-06T11:05:19.426Z,52.17
2023-03-06T11:07:55.896Z,52.58
2023-03-06T11:10:24.457Z,52.85
2023-03-06T11:13:19.001Z,51.59
2023-03-06T11:16:16.231Z,52.00
2023-03-06T11:18:56.183Z,51.12
2023-03-06T11:21:33.930Z,48.59
2023-03-06T11:24:11.943Z,47.68
2023-03-06T11:27:00.509Z,46.68
2023-03-06T11:29:38.536Z,47.44
2023-03-06T11:32:35.575Z,47.49
2023-03-06T11:35:12.323Z,46.73
2023-03-06T11:37:49.404Z,46.74
2023-03-06T11:40:52.402Z,46.20
2023-03-06T11:44:04.772Z,45.18
2023-03-06T11:46:43.786Z,44.07
2023-03-06T11:49:35.036Z,42.90
2023-03-06T11:52:15.786Z,42.37
2023-03-06T11:54:43.772Z,42.74
2023-03-06T11:57:25.152Z,41.67
2023-03-06T12:00:14.193Z,41.83
2023-03-06T12:02:49.765Z,41.38
2023-03-06T12:05:47.431Z,42.51
2023-03-06T12:08:30.396Z,41.87
2023-03-06T12:11:06.469Z,41.54
2023-03-06T12:14:05.277Z,41.87
2023-03-06T12:17:02.691Z,42.11
2023-03-06T12:20:10.765Z,42.37
2023-03-06T12:22:57.964Z,42.03
2023-03-06T12:25:45.154Z,42.56
2023-03-06T12:28:31.191Z,43.64
2023-03-06T12:31:38.146Z,43.16
2023-03-06T12:34:40.806Z,43.05
2023-03-06T12:37:15.234Z,43.34
2023-03-06T12:40:06.756Z,43.06
2023-03-06T12:43:06.034Z,43.55
2023-03-06T12:45:34.730Z,43.73
2023-03-06T12:48:04.675Z,43.89
2023-03-06T12:50:37.160Z,43.49
2023-03-06T12:53:12.081Z,43.72
2023-03-06T12:55:46.331Z,44.04
2023-03-06T12:58:29.324Z,44.93
2023-03-06T13:01:04.298Z,44.55
2023-03-06T13:04:10.638Z,44.42
2023-03-06T13:07:05.967Z,43.30
2023-03-06T13:09:59.194Z,45.28
2023-03-06T13:12:45.036Z,44.00
2023-03-06T13:15:42.255Z,43.63
2023-03-06T13:18:21.964Z,41.82
2023-03-06T13:20:54.417Z,42.78
2023-03-06T13:23:35.083Z,42.34
2023-03-06T13:26:05.377Z,43.14
2023-03-06T13:28:50.590Z,42.86
2023-03-06T13:31:33.839Z,43.76
2023-03-06T13:34:25.833Z,43.42
2023-03-06T13:36:53.566Z,44.34
2023-03-06T13:39:21.076Z,44.46
2023-03-06T13:41:58.038Z,44.69
2023-03-06T13:44:26.089Z,44.65
2023-03-06T13:47:25.221Z,45.22
2023-03-06T13:49:53.080Z,45.77
2023-03-06T13:52:40.618Z,46.61
2023-03-06T13:55:11.292Z,47.28
2023-03-06T13:57:47.924Z,47.57
2023-03-06T14:00:47.124Z,48.07
2023-03-06T14:03:32.965Z,47.77
2023-03-06T14:06:00.681Z,47.50
2023-03-06T14:08:33.305Z,47.95
2023-03-06T14:11:02.382Z,47.93
2023-03-06T14:13:48.749Z,47.74
2023-03-06T14:16:23.911Z,46.77
2023-03-06T14:18:54.080Z,47.00
2023-03-06T14:21:41.707Z,48.20
2023-03-06T14:24:17.632Z,47.71
2023-03-06T14:26:48.686Z,48.27
2023-03-06T14:29:25.240Z,47.85
2023-03-06T14:31:58.737Z,48.64
2023-03-06T14:34:27.850Z,49.35
2023-03-06T14:36:58.162Z,49.86
2023-03-06T14:39:43.455Z,50.42
2023-03-06T14:42:16.909Z,51.11
2023-03-06T14:44:46.126Z,51.15
2023-03-06T14:47:35.182Z,51.34
2023-03-06T14:50:27.630Z,52.27
2023-03-06T14:53:13.417Z,53.00
2023-03-06T14:55:53.195Z,52.80
2023-03-06T14:58:29.262Z,53.39
2023-03-06T15:01:02.359Z,54.40
2023-03-06T15:03:44.382Z,54.70
2023-03-06T15:06:25.443Z,55.19
2023-03-06T15:09:02.337Z,55.81
2023-03-06T15:11:51.799Z,56.79
2023-03-06T15:14:22.371Z,57.84
2023-03-06T15:16:50.137Z,58.76
2023-03-06T15:19:20.151Z,59.43
2023-03-06T15:21:50.809Z,61.31
2023-03-06T15:24:35.459Z,65.80
2023-03-06T15:27:07.591Z,70.79
2023-03-06T15:29:39.015Z,74.75
2023-03-06T15:32:42.424Z,76.96
2023-03-06T15:35:38.333Z,79.71
2023-03-06T15:38:30.819Z,80.31
2023-03-06T15:41:01.365Z,83.07
2023-03-06T15:43:34.425Z,83.60
2023-03-06T15:46:06.099Z,84.90
2023-03-06T15:48:35.349Z,87.47
2023-03-06T15:51:04.738Z,87.97
2023-03-06T15:53:32.448Z,88.58
2023-03-06T15:55:59.958Z,88.59
2023-03-06T15:58:31.897Z,89.54
2023-03-06T16:00:59.486Z,89.87
2023-03-06T16:03:27.258Z,91.42
2023-03-06T16:05:54.813Z,91.16
2023-03-06T16:08:22.406Z,91.83
2023-03-06T16:10:52.462Z,90.98
2023-03-06T16:13:28.772Z,92.80
2023-03-06T16:15:56.663Z,94.22
2023-03-06T16:18:24.179Z,95.19
2023-03-06T16:20:51.808Z,95.58
2023-03-06T16:23:19.900Z,96.26
2023-03-06T16:25:49.281Z,97.14
2023-03-06T16:28:17.528Z,97.27
2023-03-06T16:30:45.899Z,97.72
2023-03-06T16:33:14.122Z,97.80
2023-03-06T16:35:44.432Z,98.33
2023-03-06T16:38:12.607Z,98.49
2023-03-06T16:40:41.556Z,98.25
2023-03-06T16:43:10.754Z,98.83
2023-03-06T16:45:41.274Z,100.00
2023-03-06T16:48:14.859Z,99.06
2023-03-06T16:50:43.132Z,99.79
2023-03-06T16:53:10.681Z,100.00
2023-03-06T16:55:38.101Z,99.75
2023-03-06T16:58:06.391Z,99.87
2023-03-06T17:00:34.250Z,99.79
2023-03-06T17:03:02.395Z,98.68
2023-03-06T17:05:33.918Z,97.24
2023-03-06T17:08:01.720Z,97.19
2023-03-06T17:10:29.746Z,98.18
2023-03-06T17:12:57.810Z,97.96
2023-03-06T17:15:25.930Z,98.93
2023-03-06T17:17:53.465Z,98.77
2023-03-06T17:20:21.226Z,98.04
2023-03-06T17:22:48.682Z,98.51
2023-03-06T17:25:16.202Z,100.00
2023-03-06T17:27:43.923Z,99.44
2023-03-06T17:30:12.336Z,99.83
2023-03-06T17:32:42.898Z,99.87
2023-03-06T17:35:10.911Z,99.57
2023-03-06T17:37:38.486Z,99.77
2023-03-06T17:40:10.102Z,100.00
2023-03-06T17:42:38.170Z,100.00
2023-03-06T17:45:09.180Z,100.00
2023-03-06T17:47:37.166Z,100.00
2023-03-06T17:50:05.271Z,100.00
2023-03-06T17:52:33.812Z,100.00
2023-03-06T17:55:01.648Z,99.60
2023-03-06T17:57:29.776Z,100.00
2023-03-06T17:59:57.393Z,100.00
2023-03-06T18:02:25.019Z,99.31
2023-03-06T18:04:55.754Z,100.00
2023-03-06T18:07:24.022Z,100.00
2023-03-06T18:09:52.201Z,100.00
2023-03-06T18:12:21.008Z,100.00
2023-03-06T18:14:48.740Z,100.00
2023-03-06T18:17:16.406Z,100.00
2023-03-06T18:19:44.403Z,100.00
2023-03-06T18:22:12.173Z,100.00
2023-03-06T18:24:40.084Z,100.00
2023-03-06T18:27:08.071Z,100.00
2023-03-06T18:29:35.902Z,100.00
2023-03-06T18:32:03.726Z,100.00
2023-03-06T18:34:31.845Z,100.00
2023-03-06T18:36:59.432Z,100.00
2023-03-06T18:39:27.307Z,100.00
2023-03-06T18:41:55.955Z,100.00
2023-03-06T18:44:23.631Z,100.00
2023-03-06T18:46:51.287Z,100.00
2023-03-06T18:49:19.334Z,100.00
2023-03-06T18:51:50.376Z,100.00
2023-03-06T18:54:18.314Z,100.00
2023-03-06T18:56:46.396Z,100.00
2023-03-06T18:59:18.508Z,100.00
2023-03-06T19:01:47.932Z,100.00
2023-03-06T19:04:15.739Z,100.00
2023-03-06T19:06:43.468Z,100.00
2023-03-06T19:09:11.462Z,100.00
2023-03-06T19:11:39.295Z,100.00
2023-03-06T19:14:06.992Z,100.00
2023-03-06T19:16:35.198Z,100.00
2023-03-06T19:19:04.073Z,100.00
2023-03-06T19:21:31.963Z,100.00
2023-03-06T19:24:02.202Z,100.00
2023-03-06T19:26:29.726Z,100.00
2023-03-06T19:28:57.432Z,100.00
2023-03-06T19:31:27.897Z,100.00
2023-03-06T19:33:57.047Z,100.00
2023-03-06T19:36:28.817Z,100.00
2023-03-06T19:38:58.828Z,100.00
2023-03-06T19:41:27.762Z,100.00
2023-03-06T19:43:58.404Z,100.00
2023-03-06T19:46:27.124Z,100.00
2023-03-06T19:48:58.413Z,100.00
2023-03-06T19:51:26.941Z,100.00
2023-03-06T19:53:55.826Z,100.00
2023-03-06T19:56:26.309Z,100.00
2023-03-06T19:58:54.796Z,100.00
2023-03-06T20:01:25.240Z,100.00
2023-03-06T20:03:58.437Z,100.00
2023-03-06T20:06:29.580Z,100.00
2023-03-06T20:08:57.676Z,100.00
2023-03-06T20:11:29.892Z,100.00
2023-03-06T20:13:59.667Z,100.00
2023-03-06T20:16:28.439Z,100.00
2023-03-06T20:18:58.732Z,100.00
2023-03-06T20:21:29.559Z,100.00
2023-03-06T20:23:58.220Z,100.00
2023-03-06T20:26:28.569Z,100.00
2023-03-06T20:28:57.795Z,100.00
2023-03-06T20:31:28.251Z,100.00
2023-03-06T20:33:59.187Z,100.00
2023-03-06T20:36:30.152Z,100.00
2023-03-06T20:39:08.981Z,100.00
2023-03-06T20:41:36.947Z,100.00
2023-03-06T20:44:07.838Z,100.00
2023-03-06T20:46:36.162Z,100.00
2023-03-06T20:49:04.910Z,100.00
2023-03-06T20:51:37.529Z,100.00
2023-03-06T20:54:07.455Z,100.00
2023-03-06T20:56:36.858Z,100.00
2023-03-06T20:59:05.820Z,100.00
2023-03-06T21:01:38.366Z,100.00
2023-03-06T21:04:08.618Z,100.00
2023-03-06T21:06:37.716Z,100.00
2023-03-06T21:09:06.562Z,100.00
2023-03-06T21:11:35.374Z,100.00
2023-03-06T21:14:03.117Z,100.00
2023-03-06T21:16:31.356Z,100.00
2023-03-06T21:19:00.456Z,100.00
2023-03-06T21:21:31.500Z,100.00
2023-03-06T21:24:00.513Z,100.00
2023-03-06T21:26:30.844Z,100.00
2023-03-06T21:28:58.998Z,100.00
2023-03-06T21:31:28.482Z,100.00
2023-03-06T21:33:56.898Z,100.00
2023-03-06T21:36:25.368Z,100.00
2023-03-06T21:38:54.079Z,100.00
2023-03-06T21:41:24.885Z,100.00
2023-03-06T21:43:56.936Z,100.00
2023-03-06T21:46:25.583Z,100.00
2023-03-06T21:48:54.064Z,100.00
2023-03-06T21:51:23.709Z,100.00
2023-03-06T21:53:52.620Z,100.00
2023-03-06T21:56:23.129Z,100.00
2023-03-06T21:58:50.730Z,100.00
2023-03-06T22:01:22.154Z,100.00
2023-03-06T22:03:50.272Z,100.00
2023-03-06T22:06:20.437Z,100.00
2023-03-06T22:08:48.543Z,100.00
2023-03-06T22:11:21.268Z,100.00
2023-03-06T22:13:49.539Z,100.00
2023-03-06T22:16:18.340Z,100.00
2023-03-06T22:18:52.471Z,100.00
2023-03-06T22:21:22.192Z,100.00
2023-03-06T22:23:51.021Z,100.00
2023-03-06T22:26:19.086Z,100.00
2023-03-06T22:28:46.949Z,100.00
2023-03-06T22:31:17.583Z,100.00
2023-03-06T22:33:45.201Z,100.00
2023-03-06T22:36:15.399Z,100.00
2023-03-06T22:38:45.233Z,100.00
2023-03-06T22:41:15.084Z,100.00
2023-03-06T22:43:43.588Z,100.00
2023-03-06T22:46:16.555Z,100.00
2023-03-06T22:48:45.187Z,100.00
2023-03-06T22:51:18.383Z,100.00
2023-03-06T22:53:46.950Z,100.00
2023-03-06T22:56:18.266Z,100.00
2023-03-06T22:58:46.469Z,100.00
2023-03-06T23:01:16.965Z,100.00
2023-03-06T23:03:47.667Z,100.00
2023-03-06T23:06:16.980Z,100.00
2023-03-06T23:08:48.579Z,100.00
2023-03-06T23:11:18.289Z,100.00
2023-03-06T23:14:05.918Z,100.00
2023-03-06T23:16:52.313Z,100.00
2023-03-06T23:19:38.562Z,100.00
2023-03-06T23:22:24.397Z,100.00
2023-03-06T23:25:10.139Z,100.00
2023-03-06T23:27:38.024Z,100.00
2023-03-06T23:30:06.616Z,100.00
2023-03-06T23:32:35.065Z,100.00
2023-03-06T23:35:02.960Z,100.00
2023-03-06T23:37:30.559Z,100.00
2023-03-06T23:39:58.235Z,100.00
2023-03-06T23:42:25.971Z,100.00
2023-03-06T23:44:53.383Z,100.00
2023-03-06T23:47:20.788Z,100.00
2023-03-06T23:49:48.485Z,100.00
2023-03-06T23:52:16.183Z,100.00
2023-03-06T23:54:43.883Z,100.00
2023-03-06T23:57:11.649Z,100.00
2023-03-06T23:59:39.182Z,100.00
